AGROMETEOROLOŠKI PORTAL

vinorodna pokrajina

Temelj dobrega kmetovanja

Izpis lokacij s podatki meritev in opazovanj za Osrednja Slovenija

TODO Caption
Pregled minimalnih nočnih temperatur med 04.12.2022 od 22:00 in 05.12.2022 do 10:00 (zapri pregled)
Osrednja Slovenija
Lokacija Nadmorska višina Lega Višina meritve senzorja Datum in čas meritve Dosežena min. temperatura RH Veter (m/s) Temp. rosišča Temp. mokrega termometra
Borovnica 288 m 2 m 4.12.2022 22:00 3,5 99,9 1,1 3,5 3,5
Češnjevek (Cerklje) 405 m S 2 m 5.12.2022 02:00 2,3 99,5 2,2 2,3
Gabrska Gora 487 m 2 m 4.12.2022 22:30 2,1 100,0 2,1 2,1
Jablje 302 m S 20 cm 4.12.2022 22:00 3,7 100,0 0,9 3,7 3,7
Jablje 302 m S 2 m 4.12.2022 22:00 3,8 100,0 0,9 3,8 3,8
Kamnik 377 m JV 2 m 4.12.2022 22:30 3,1 99,9 3,1 3,1
Kovor 514 m 2 m 5.12.2022 02:00 1,1 99,9 1,1 1,1
Kovor 514 m 20 cm 5.12.2022 02:00 0,5 99,9 0,5 0,5
Ljubljana KIS 297 m S 2 m 5.12.2022 00:00 4,1 96,4 3,6 3,9
Podbrezje 456 m JV 2 m 5.12.2022 01:30 1,2 99,9 1,2 1,2
Resje 503 m 2 m 5.12.2022 02:00 0,4 99,9 0,4 0,4
Šentjakob 279 m 20 cm 4.12.2022 22:30 3,6 99,9 3,6 3,6
Šentjakob 279 m 2 m 5.12.2022 02:00 3,7 99,9 3,7 3,7
Vnajnarje 667 m S 2 m 5.12.2022 00:00 1,2 99,9 1,2 1,2
Znojile pri Krki 331 m JV 2 m 5.12.2022 02:00 3,3 99,9 3,3 3,3
Žabnica (Dorfarje) 372 m 2 m 4.12.2022 23:00 2,2 99,9 2,2 2,2
BOHINJSKA ČEŠNJICA - ARSO 596 m 2 m 5.12.2022 01:30 0,1 98,0 -0,2 0,0
BORŠT PRI GORENJI VASI ARSO 532 m 2 m 4.12.2022 22:00 1,5 98,0 0,8 1,2 1,4
BRNIK - LETALIŠČE - ARSO 364 m 2 m 5.12.2022 01:30 2,7 96,0 1,9 2,1 2,5
Lesce 515 m 2 m 5.12.2022 01:30 0,8 97,0 0,0 0,4 0,6
LITIJA ARSO 263 m 2 m 4.12.2022 22:00 4,1 94,0 3,2 3,7
Ljubljana - Bežigrad ARSO 299 m 2 m 4.12.2022 23:00 4,1 95,0 1,9 3,4 3,8
LOGATEC - ARSO 486 m 2 m 4.12.2022 23:00 2,6 97,0 2,2 2,4
NOVA VAS - BLOKE - ARSO 718 m 2 m 5.12.2022 01:00 0,4 97,0 0,0 0,2
VRHNIKA ARSO 367 m 2 m 4.12.2022 22:00 3,3 97,0 2,2 2,9 3,1
Jeprca DRSI 360 m 2 m 4.12.2022 23:00 2,8 97,0 0,4 2,4 2,6
Kranj - Delavski most DRSI 380 m 2 m 4.12.2022 23:00 2,6 96,0 2,4 2,0 2,4
Krtina 1 DRSI 308 m 2 m 4.12.2022 22:00 4,0 100,0 0,0 4,0 4,0
Moste pri Komendi DRSI 331 m 2 m 4.12.2022 22:00 4,0 100,0 0,3 4,0 4,0
Podvin DRSI 489 m 2 m 4.12.2022 22:00 2,0 100,0 1,1 2,0 2,0
Vir pri Domžalah DRSI 308 m 2 m 4.12.2022 22:00 4,0 100,0 0,8 4,0 4,0
Postaje, katerih podatke prikazujemo na portalu, so postaje proizvajalca Adcon Telemetry.

IZJAVA O OMEJITVI ODGOVORNOSTI: Uprava Republike Slovenije za varno hrano, veterinarstvo in varstvo rastlin (Uprava) skupaj z Opazovalno napovedovalno službo zdravstvenega varstva rastlin skrbi za nemoteno delovanje in vzdrževanje meteoroloških podatkov iz mreže agrometeoroloških postaj (Adcon Telemety). Agrometeorološki podatki, ki so objavljeni na tej strani, so zgolj informativne narave. Za morebitne vsebinske napake, do katerih lahko pride zaradi tehničnih težav pri vzdrževanju mreže, napak merilne opreme ali drugih nepredvidljivih vzrokov, napak pri vnosu, posodabljanja vsebin, Uprava ne prevzema odgovornosti, kakor tudi ne zaradi nepravilnega delovanja in/ali nedostopnosti vsebine teh spletnih strani. Uprava tudi ne prevzema odgovornosti za kakršnokoli neposredno ali posredno izgubo oziroma škodo, materialno in nematerialno, ki bi nastala zaradi dostopa, uporabe ali odločitve, sprejete na podlagi informacij, objavljenih na teh spletnih straneh, kakor tudi ne zaradi nepravilnega delovanja in/ali nedostopnosti vsebine teh spletnih strani. Uprava si pridržuje pravico do spremembe oziroma umika vsebine, deloma ali v celoti, brez predhodne najave. Vsak poskus nepooblaščenega spreminjanja ali poškodovanja spletnih strani, kot tudi nepooblaščen dostop do informacij mimo spletnih strani in do drugih vsebin, je kaznivo dejanje. Pri uporabi vsebin, objavljenih na portalu, je potrebno navesti vir podatkov (UVHVVR, Agrometeorološki portal Slovenije) in upoštevati avtorske pravice.